Řízení letového provozu České republiky
Letiste: LKPR Aktualizace: 18.08.2018 11:31:07  UTC
 METAR LKPR 18.08. 11:30 ...
METAR LKPR 181130Z 02009KT CAVOK 25/13 Q1021 NOSIG RMK REG QNH 1017=
 TAF LKPR 18.08. 11:00 ...
TAF LKPR 181100Z 1812/1918 01008KT CAVOK      PROB30 TEMPO 1812/1818 03012G24KT 7000 SHRA SCT050CB      PROB30 TEMPO 1910/1912 SCT050CB=